Private Wetterstation Sandau
Wetterdaten: Donnerstag, 21.02.2013
Datum Zeit Temp. A. Feuchte A. Luftdruck Regen Wind Richtung Richtung Taupunkt Windchill
21.02.2013 00:01 -2,1 C 87 % 1025,5 hPa 0,0 l/m 9,4 km/h (2 Bft) NO 45 -4,0 C -5,6 C
21.02.2013 00:06 -2,1 C 87 % 1025,3 hPa 0,0 l/m 5,0 km/h (1 Bft) N-NO 22 -4,0 C -4,0 C
21.02.2013 00:11 -2,1 C 87 % 1025,4 hPa 0,0 l/m 6,8 km/h (2 Bft) N 360 -4,0 C -4,8 C
21.02.2013 00:16 -2,1 C 87 % 1025,3 hPa 0,0 l/m 6,8 km/h (2 Bft) N 360 -4,0 C -4,8 C
21.02.2013 00:21 -2,1 C 87 % 1025,5 hPa 0,0 l/m 4,7 km/h (1 Bft) N-NO 22 -4,0 C -3,8 C
21.02.2013 00:26 -2,1 C 87 % 1025,4 hPa 0,0 l/m 7,2 km/h (2 Bft) O-NO 67 -4,0 C -4,9 C
21.02.2013 00:31 -2,1 C 87 % 1025,4 hPa 0,0 l/m 7,2 km/h (2 Bft) N-NO 22 -4,0 C -4,9 C
21.02.2013 00:36 -2,1 C 87 % 1025,3 hPa 0,0 l/m 9,4 km/h (2 Bft) N 360 -4,0 C -5,6 C
21.02.2013 00:41 -2,1 C 87 % 1025,4 hPa 0,0 l/m 6,8 km/h (2 Bft) N 360 -4,0 C -4,8 C
21.02.2013 00:46 -2,1 C 87 % 1025,4 hPa 0,0 l/m 17,6 km/h (3 Bft) N-NO 22 -4,0 C -7,5 C
21.02.2013 00:51 -2,1 C 87 % 1025,3 hPa 0,0 l/m 7,9 km/h (2 Bft) N-NO 22 -4,0 C -5,2 C
21.02.2013 00:56 -2,1 C 87 % 1025,4 hPa 0,0 l/m 4,0 km/h (1 Bft) NO 45 -4,0 C -2,1 C
21.02.2013 01:01 -2,1 C 87 % 1025,3 hPa 0,0 l/m 6,1 km/h (2 Bft) N-NO 22 -4,0 C -4,5 C
21.02.2013 01:06 -2,1 C 87 % 1025,3 hPa 0,0 l/m 9,4 km/h (2 Bft) N-NO 22 -4,0 C -5,6 C
21.02.2013 01:11 -2,1 C 87 % 1025,3 hPa 0,0 l/m 8,3 km/h (2 Bft) O-NO 67 -4,0 C -5,3 C
21.02.2013 01:16 -2,1 C 87 % 1025,3 hPa 0,0 l/m 9,0 km/h (2 Bft) N-NO 22 -4,0 C -5,5 C
21.02.2013 01:21 -2,1 C 87 % 1025,4 hPa 0,0 l/m 18,0 km/h (3 Bft) N-NO 22 -4,0 C -7,6 C
21.02.2013 01:26 -2,1 C 87 % 1025,2 hPa 0,0 l/m 12,6 km/h (3 Bft) N-NO 22 -4,0 C -6,5 C
21.02.2013 01:31 -2,1 C 87 % 1025,4 hPa 0,0 l/m 4,7 km/h (1 Bft) N 360 -4,0 C -3,8 C
21.02.2013 01:36 -2,1 C 87 % 1025,4 hPa 0,0 l/m 6,5 km/h (2 Bft) N-NO 22 -4,0 C -4,6 C
21.02.2013 01:41 -2,1 C 87 % 1025,5 hPa 0,0 l/m 6,5 km/h (2 Bft) NO 45 -4,0 C -4,6 C
21.02.2013 01:46 -2,1 C 87 % 1025,4 hPa 0,0 l/m 12,6 km/h (3 Bft) N-NO 22 -4,0 C -6,5 C
21.02.2013 01:51 -2,1 C 87 % 1025,5 hPa 0,0 l/m 6,1 km/h (2 Bft) N-NO 22 -4,0 C -4,5 C
21.02.2013 01:56 -2,1 C 87 % 1025,5 hPa 0,0 l/m 4,7 km/h (1 Bft) N-NO 22 -4,0 C -3,8 C
21.02.2013 02:01 -2,1 C 87 % 1025,5 hPa 0,0 l/m 9,0 km/h (2 Bft) N 360 -4,0 C -5,5 C
21.02.2013 02:06 -2,1 C 87 % 1025,4 hPa 0,0 l/m 7,6 km/h (2 Bft) N-NO 22 -4,0 C -5,1 C
21.02.2013 02:11 -2,1 C 87 % 1025,5 hPa 0,0 l/m 8,3 km/h (2 Bft) N-NO 22 -4,0 C -5,3 C
21.02.2013 02:16 -2,1 C 87 % 1025,4 hPa 0,0 l/m 6,5 km/h (2 Bft) N-NO 22 -4,0 C -4,6 C
21.02.2013 02:21 -2,1 C 87 % 1025,5 hPa 0,0 l/m 6,8 km/h (2 Bft) N 360 -4,0 C -4,8 C
21.02.2013 02:26 -2,1 C 87 % 1025,4 hPa 0,0 l/m 0,0 km/h (0 Bft) N-NO 22 -4,0 C -2,1 C
21.02.2013 02:31 -2,1 C 87 % 1025,4 hPa 0,0 l/m 4,7 km/h (1 Bft) NO 45 -4,0 C -3,8 C
21.02.2013 02:36 -2,1 C 87 % 1025,5 hPa 0,0 l/m 9,4 km/h (2 Bft) N-NO 22 -4,0 C -5,6 C
21.02.2013 02:41 -2,1 C 87 % 1025,4 hPa 0,0 l/m 2,2 km/h (1 Bft) N-NO 22 -4,0 C -2,1 C
21.02.2013 02:46 -2,1 C 87 % 1025,5 hPa 0,0 l/m 9,7 km/h (2 Bft) N-NO 22 -4,0 C -5,7 C
21.02.2013 02:51 -2,1 C 87 % 1025,3 hPa 0,0 l/m 7,9 km/h (2 Bft) N 360 -4,0 C -5,2 C
21.02.2013 02:56 -2,1 C 87 % 1025,3 hPa 0,0 l/m 7,6 km/h (2 Bft) N 360 -4,0 C -5,1 C
21.02.2013 03:01 -2,1 C 87 % 1025,4 hPa 0,0 l/m 4,0 km/h (1 Bft) N-NO 22 -4,0 C -2,1 C
21.02.2013 03:06 -2,1 C 87 % 1025,4 hPa 0,0 l/m 7,2 km/h (2 Bft) N-NO 22 -4,0 C -4,9 C
21.02.2013 03:11 -2,1 C 87 % 1025,4 hPa 0,0 l/m 3,2 km/h (1 Bft) N-NO 22 -4,0 C -2,1 C
21.02.2013 03:16 -2,1 C 87 % 1025,4 hPa 0,0 l/m 4,3 km/h (1 Bft) O-NO 67 -4,0 C -2,1 C
21.02.2013 03:21 -2,1 C 87 % 1025,2 hPa 0,0 l/m 6,1 km/h (2 Bft) N-NO 22 -4,0 C -4,5 C
21.02.2013 03:26 -2,1 C 87 % 1025,2 hPa 0,0 l/m 13,0 km/h (3 Bft) O-NO 67 -4,0 C -6,6 C
21.02.2013 03:31 -2,1 C 87 % 1025,2 hPa 0,0 l/m 7,9 km/h (2 Bft) N 360 -4,0 C -5,2 C
21.02.2013 03:36 -2,1 C 87 % 1025,3 hPa 0,0 l/m 7,2 km/h (2 Bft) N-NO 22 -4,0 C -4,9 C
21.02.2013 03:41 -2,1 C 87 % 1025,1 hPa 0,0 l/m 5,4 km/h (1 Bft) N-NO 22 -4,0 C -4,2 C
21.02.2013 03:46 -2,1 C 87 % 1025,2 hPa 0,0 l/m 6,5 km/h (2 Bft) N 360 -4,0 C -4,6 C
21.02.2013 03:51 -2,1 C 87 % 1025,1 hPa 0,0 l/m 7,2 km/h (2 Bft) N-NO 22 -4,0 C -4,9 C
21.02.2013 03:56 -2,1 C 87 % 1025,1 hPa 0,0 l/m 8,3 km/h (2 Bft) N 360 -4,0 C -5,3 C
21.02.2013 04:01 -2,1 C 88 % 1025,0 hPa 0,0 l/m 4,7 km/h (1 Bft) N-NO 22 -3,8 C -3,8 C
21.02.2013 04:06 -2,1 C 88 % 1025,0 hPa 0,0 l/m 6,5 km/h (2 Bft) N-NO 22 -3,8 C -4,6 C
21.02.2013 04:11 -2,1 C 89 % 1025,1 hPa 0,0 l/m 3,2 km/h (1 Bft) NO 45 -3,7 C -2,1 C
21.02.2013 04:16 -2,1 C 89 % 1025,0 hPa 0,0 l/m 8,3 km/h (2 Bft) NO 45 -3,7 C -5,3 C
21.02.2013 04:21 -2,1 C 89 % 1025,0 hPa 0,0 l/m 6,5 km/h (2 Bft) N-NO 22 -3,7 C -4,6 C
21.02.2013 04:26 -2,1 C 89 % 1025,1 hPa 0,0 l/m 2,5 km/h (1 Bft) NO 45 -3,7 C -2,1 C
21.02.2013 04:31 -2,2 C 89 % 1025,1 hPa 0,0 l/m 6,5 km/h (2 Bft) N-NO 22 -3,8 C -4,8 C
21.02.2013 04:36 -2,2 C 89 % 1025,1 hPa 0,0 l/m 4,7 km/h (1 Bft) N 360 -3,8 C -3,9 C
21.02.2013 04:41 -2,1 C 89 % 1025,0 hPa 0,0 l/m 6,1 km/h (2 Bft) N-NO 22 -3,7 C -4,5 C
21.02.2013 04:46 -2,1 C 89 % 1024,9 hPa 0,0 l/m 8,6 km/h (2 Bft) N-NO 22 -3,7 C -5,4 C
21.02.2013 04:51 -2,1 C 89 % 1024,9 hPa 0,0 l/m 4,3 km/h (1 Bft) N-NO 22 -3,7 C -2,1 C
21.02.2013 04:56 -2,1 C 89 % 1025,0 hPa 0,0 l/m 3,6 km/h (1 Bft) N-NO 22 -3,7 C -2,1 C
21.02.2013 05:01 -2,1 C 88 % 1024,9 hPa 0,0 l/m 1,8 km/h (1 Bft) O-NO 67 -3,8 C -2,1 C
21.02.2013 05:06 -2,1 C 88 % 1024,9 hPa 0,0 l/m 4,7 km/h (1 Bft) N-NO 22 -3,8 C -3,8 C
21.02.2013 05:11 -2,1 C 88 % 1025,0 hPa 0,0 l/m 6,1 km/h (2 Bft) N 360 -3,8 C -4,5 C
21.02.2013 05:16 -2,1 C 87 % 1025,0 hPa 0,0 l/m 7,6 km/h (2 Bft) N-NO 22 -4,0 C -5,1 C
21.02.2013 05:21 -2,1 C 87 % 1025,0 hPa 0,0 l/m 5,8 km/h (2 Bft) O-NO 67 -4,0 C -4,4 C
21.02.2013 05:26 -2,1 C 87 % 1024,8 hPa 0,0 l/m 6,5 km/h (2 Bft) N 360 -4,0 C -4,6 C
21.02.2013 05:31 -2,1 C 87 % 1025,0 hPa 0,0 l/m 0,0 km/h (0 Bft) N-NO 22 -4,0 C -2,1 C
21.02.2013 05:36 -2,1 C 87 % 1025,1 hPa 0,0 l/m 7,9 km/h (2 Bft) N 360 -4,0 C -5,2 C
21.02.2013 05:41 -2,1 C 87 % 1024,9 hPa 0,0 l/m 9,7 km/h (2 Bft) N 360 -4,0 C -5,7 C
21.02.2013 05:46 -2,1 C 87 % 1025,0 hPa 0,0 l/m 2,5 km/h (1 Bft) N-NO 22 -4,0 C -2,1 C
21.02.2013 05:51 -2,1 C 87 % 1025,0 hPa 0,0 l/m 5,0 km/h (1 Bft) N 360 -4,0 C -4,0 C
21.02.2013 05:56 -2,1 C 87 % 1024,9 hPa 0,0 l/m 4,3 km/h (1 Bft) N 360 -4,0 C -2,1 C
21.02.2013 06:01 -2,1 C 87 % 1024,9 hPa 0,0 l/m 4,7 km/h (1 Bft) O-NO 67 -4,0 C -3,8 C
21.02.2013 06:06 -2,1 C 87 % 1024,8 hPa 0,0 l/m 3,6 km/h (1 Bft) N-NO 22 -4,0 C -2,1 C
21.02.2013 06:11 -2,1 C 87 % 1024,8 hPa 0,0 l/m 7,2 km/h (2 Bft) N-NO 22 -4,0 C -4,9 C
21.02.2013 06:16 -2,1 C 87 % 1024,7 hPa 0,0 l/m 6,1 km/h (2 Bft) N-NO 22 -4,0 C -4,5 C
21.02.2013 06:21 -2,1 C 87 % 1024,7 hPa 0,0 l/m 7,2 km/h (2 Bft) N 360 -4,0 C -4,9 C
21.02.2013 06:26 -2,1 C 88 % 1024,7 hPa 0,0 l/m 1,4 km/h (1 Bft) NO 45 -3,8 C -2,1 C
21.02.2013 06:31 -2,1 C 88 % 1024,6 hPa 0,0 l/m 2,2 km/h (1 Bft) O-NO 67 -3,8 C -2,1 C
21.02.2013 06:36 -2,1 C 88 % 1024,5 hPa 0,0 l/m 6,8 km/h (2 Bft) N 360 -3,8 C -4,8 C
21.02.2013 06:41 -2,1 C 88 % 1024,6 hPa 0,0 l/m 5,8 km/h (2 Bft) N 360 -3,8 C -4,4 C
21.02.2013 06:46 -2,1 C 89 % 1024,7 hPa 0,0 l/m 8,6 km/h (2 Bft) N-NO 22 -3,7 C -5,4 C
21.02.2013 06:51 -2,1 C 89 % 1024,7 hPa 0,0 l/m 3,6 km/h (1 Bft) N-NO 22 -3,7 C -2,1 C
21.02.2013 06:56 -2,2 C 89 % 1024,7 hPa 0,0 l/m 4,0 km/h (1 Bft) N 360 -3,8 C -2,2 C
21.02.2013 07:01 -2,2 C 89 % 1024,8 hPa 0,0 l/m 3,6 km/h (1 Bft) N-NO 22 -3,8 C -2,2 C
21.02.2013 07:06 -2,2 C 89 % 1024,5 hPa 0,0 l/m 8,3 km/h (2 Bft) N-NO 22 -3,8 C -5,4 C
21.02.2013 07:11 -2,1 C 89 % 1024,7 hPa 0,0 l/m 7,9 km/h (2 Bft) N-NO 22 -3,7 C -5,2 C
21.02.2013 07:16 -2,1 C 89 % 1024,7 hPa 0,0 l/m 3,2 km/h (1 Bft) N-NO 22 -3,7 C -2,1 C
21.02.2013 07:21 -2,1 C 89 % 1024,8 hPa 0,0 l/m 5,4 km/h (1 Bft) N 360 -3,7 C -4,2 C
21.02.2013 07:26 -2,1 C 89 % 1024,7 hPa 0,0 l/m 0,0 km/h (0 Bft) O-NO 67 -3,7 C -2,1 C
21.02.2013 07:31 -2,1 C 89 % 1024,9 hPa 0,0 l/m 2,9 km/h (1 Bft) O-NO 67 -3,7 C -2,1 C
21.02.2013 07:36 -2,1 C 88 % 1024,9 hPa 0,0 l/m 5,8 km/h (2 Bft) N-NO 22 -3,8 C -4,4 C
21.02.2013 07:41 -2,1 C 88 % 1024,7 hPa 0,0 l/m 4,0 km/h (1 Bft) N-NO 22 -3,8 C -2,1 C
21.02.2013 07:46 -2,1 C 88 % 1024,9 hPa 0,0 l/m 3,6 km/h (1 Bft) N-NO 22 -3,8 C -2,1 C
21.02.2013 07:51 -2,1 C 88 % 1025,0 hPa 0,0 l/m 3,2 km/h (1 Bft) N-NO 22 -3,8 C -2,1 C
21.02.2013 07:56 -2,0 C 88 % 1024,9 hPa 0,0 l/m 4,7 km/h (1 Bft) N-NO 22 -3,7 C -3,7 C
21.02.2013 08:01 -1,9 C 88 % 1025,0 hPa 0,0 l/m 5,4 km/h (1 Bft) N-NO 22 -3,6 C -3,9 C
21.02.2013 08:06 -1,9 C 88 % 1025,1 hPa 0,0 l/m 2,9 km/h (1 Bft) NO 45 -3,6 C -1,9 C
21.02.2013 08:11 -1,8 C 87 % 1025,0 hPa 0,0 l/m 5,4 km/h (1 Bft) NO 45 -3,7 C -3,8 C
21.02.2013 08:16 -1,8 C 87 % 1025,1 hPa 0,0 l/m 4,3 km/h (1 Bft) N-NO 22 -3,7 C -1,8 C
21.02.2013 08:21 -1,7 C 87 % 1025,1 hPa 0,0 l/m 4,3 km/h (1 Bft) NO 45 -3,6 C -1,7 C
21.02.2013 08:26 -1,7 C 87 % 1025,2 hPa 0,0 l/m 3,2 km/h (1 Bft) N 360 -3,6 C -1,7 C
21.02.2013 08:31 -1,6 C 87 % 1025,1 hPa 0,0 l/m 10,8 km/h (2 Bft) O-NO 67 -3,5 C -5,4 C
21.02.2013 08:36 -1,6 C 87 % 1025,2 hPa 0,0 l/m 5,8 km/h (2 Bft) NO 45 -3,5 C -3,8 C
21.02.2013 08:41 -1,5 C 86 % 1025,3 hPa 0,0 l/m 4,3 km/h (1 Bft) N-NO 22 -3,5 C -1,5 C
21.02.2013 08:46 -1,4 C 86 % 1025,4 hPa 0,0 l/m 4,3 km/h (1 Bft) NO 45 -3,4 C -1,4 C
21.02.2013 08:51 -1,4 C 86 % 1025,2 hPa 0,0 l/m 3,2 km/h (1 Bft) O 90 -3,4 C -1,4 C
21.02.2013 08:56 -1,3 C 86 % 1025,2 hPa 0,0 l/m 4,0 km/h (1 Bft) N 360 -3,3 C -1,3 C
21.02.2013 09:01 -1,3 C 86 % 1025,1 hPa 0,0 l/m 3,2 km/h (1 Bft) N 360 -3,3 C -1,3 C
21.02.2013 09:06 -1,3 C 86 % 1025,1 hPa 0,0 l/m 2,5 km/h (1 Bft) N-NO 22 -3,3 C -1,3 C
21.02.2013 09:11 -1,1 C 87 % 1025,3 hPa 0,0 l/m 6,5 km/h (2 Bft) N 360 -3,0 C -3,5 C
21.02.2013 09:16 -1,1 C 86 % 1025,3 hPa 0,0 l/m 5,0 km/h (1 Bft) O-NO 67 -3,1 C -2,8 C
21.02.2013 09:21 -1,1 C 86 % 1025,1 hPa 0,0 l/m 3,6 km/h (1 Bft) N-NO 22 -3,1 C -1,1 C
21.02.2013 09:26 -0,9 C 86 % 1025,1 hPa 0,0 l/m 6,5 km/h (2 Bft) N-NO 22 -2,9 C -3,3 C
21.02.2013 09:31 -0,9 C 86 % 1025,0 hPa 0,0 l/m 3,6 km/h (1 Bft) O-NO 67 -2,9 C -0,9 C
21.02.2013 09:36 -0,8 C 86 % 1025,1 hPa 0,0 l/m 4,3 km/h (1 Bft) O-NO 67 -2,8 C -0,8 C
21.02.2013 09:41 -0,7 C 86 % 1025,1 hPa 0,0 l/m 5,8 km/h (2 Bft) N 360 -2,7 C -2,7 C
21.02.2013 09:46 -0,7 C 85 % 1025,1 hPa 0,0 l/m 8,3 km/h (2 Bft) N 360 -2,9 C -3,7 C
21.02.2013 09:51 -0,7 C 85 % 1025,0 hPa 0,0 l/m 4,0 km/h (1 Bft) N-NO 22 -2,9 C -0,7 C
21.02.2013 09:56 -0,6 C 85 % 1025,1 hPa 0,0 l/m 11,2 km/h (2 Bft) N 360 -2,8 C -4,3 C
21.02.2013 10:01 -0,5 C 84 % 1025,1 hPa 0,0 l/m 2,2 km/h (1 Bft) NO 45 -2,9 C -0,5 C
21.02.2013 10:06 -0,5 C 84 % 1025,0 hPa 0,0 l/m 2,9 km/h (1 Bft) O-NO 67 -2,9 C -0,5 C
21.02.2013 10:11 -0,5 C 84 % 1025,0 hPa 0,0 l/m 5,8 km/h (2 Bft) N 360 -2,9 C -2,5 C
21.02.2013 10:16 -0,4 C 84 % 1025,1 hPa 0,0 l/m 7,6 km/h (2 Bft) N-NO 22 -2,8 C -3,1 C
21.02.2013 10:21 -0,4 C 84 % 1025,0 hPa 0,0 l/m 8,3 km/h (2 Bft) N 360 -2,8 C -3,3 C
21.02.2013 10:26 -0,4 C 84 % 1025,0 hPa 0,0 l/m 8,6 km/h (2 Bft) N-NO 22 -2,8 C -3,4 C
21.02.2013 10:31 -0,4 C 84 % 1025,0 hPa 0,0 l/m 8,6 km/h (2 Bft) N-NO 22 -2,8 C -3,4 C
21.02.2013 10:36 -0,5 C 84 % 1025,2 hPa 0,0 l/m 7,2 km/h (2 Bft) N 360 -2,9 C -3,1 C
21.02.2013 10:41 -0,5 C 85 % 1025,1 hPa 0,0 l/m 5,8 km/h (2 Bft) NO 45 -2,7 C -2,5 C
21.02.2013 10:46 -0,5 C 84 % 1025,1 hPa 0,0 l/m 2,9 km/h (1 Bft) O 90 -2,9 C -0,5 C
21.02.2013 10:51 -0,4 C 84 % 1025,1 hPa 0,0 l/m 6,5 km/h (2 Bft) N 360 -2,8 C -2,7 C
21.02.2013 10:56 -0,4 C 84 % 1025,2 hPa 0,0 l/m 4,0 km/h (1 Bft) N-NO 22 -2,8 C -0,4 C
21.02.2013 11:01 -0,4 C 83 % 1025,1 hPa 0,0 l/m 5,0 km/h (1 Bft) N-NO 22 -2,9 C -2,0 C
21.02.2013 11:06 -0,2 C 83 % 1025,1 hPa 0,0 l/m 9,0 km/h (2 Bft) NO 45 -2,7 C -3,3 C
21.02.2013 11:11 -0,2 C 83 % 1025,1 hPa 0,0 l/m 4,0 km/h (1 Bft) NO 45 -2,7 C -0,2 C
21.02.2013 11:16 -0,1 C 81 % 1025,1 hPa 0,0 l/m 10,4 km/h (2 Bft) O-NO 67 -3,0 C -3,5 C
21.02.2013 11:21 -0,1 C 81 % 1025,1 hPa 0,0 l/m 5,0 km/h (1 Bft) NO 45 -3,0 C -1,7 C
21.02.2013 11:26 -0,1 C 81 % 1025,2 hPa 0,0 l/m 6,8 km/h (2 Bft) SO 135 -3,0 C -2,4 C
21.02.2013 11:31 -0,1 C 81 % 1025,1 hPa 0,0 l/m 7,6 km/h (2 Bft) S-SO 157 -3,0 C -2,7 C
21.02.2013 11:36 -0,2 C 81 % 1024,9 hPa 0,0 l/m 6,8 km/h (2 Bft) S-SO 157 -3,1 C -2,6 C
21.02.2013 11:41 -0,6 C 82 % 1025,1 hPa 0,0 l/m 7,2 km/h (2 Bft) SO 135 -3,3 C -3,2 C
21.02.2013 11:46 -0,8 C 83 % 1025,2 hPa 0,0 l/m 13,7 km/h (3 Bft) SO 135 -3,3 C -5,1 C
21.02.2013 11:51 -1,1 C 84 % 1025,1 hPa 0,0 l/m 5,0 km/h (1 Bft) O-SO 112 -3,4 C -2,8 C
21.02.2013 11:56 -1,1 C 85 % 1025,1 hPa 0,0 l/m 5,4 km/h (1 Bft) SO 135 -3,3 C -3,0 C
21.02.2013 12:01 -1,1 C 86 % 1024,9 hPa 0,0 l/m 0,0 km/h (0 Bft) S-SO 157 -3,1 C -1,1 C
21.02.2013 12:06 -0,9 C 86 % 1025,1 hPa 0,0 l/m 0,0 km/h (0 Bft) O-SO 112 -2,9 C -0,9 C
21.02.2013 12:11 -0,5 C 86 % 1025,1 hPa 0,0 l/m 0,0 km/h (0 Bft) O-SO 112 -2,5 C -0,5 C
21.02.2013 12:16 -0,1 C 86 % 1025,0 hPa 0,0 l/m 2,2 km/h (1 Bft) O-SO 112 -2,2 C -0,1 C
21.02.2013 12:21 0,4 C 85 % 1024,9 hPa 0,0 l/m 3,2 km/h (1 Bft) SO 135 -1,8 C 0,4 C
21.02.2013 12:26 0,9 C 84 % 1024,9 hPa 0,0 l/m 0,0 km/h (0 Bft) SO 135 -1,5 C 0,9 C
21.02.2013 12:31 1,0 C 83 % 1024,8 hPa 0,0 l/m 0,0 km/h (0 Bft) S-SO 157 -1,6 C 1,0 C
21.02.2013 12:36 1,1 C 82 % 1024,9 hPa 0,0 l/m 2,9 km/h (1 Bft) S-SO 157 -1,6 C 1,1 C
21.02.2013 12:41 1,3 C 82 % 1024,8 hPa 0,0 l/m 1,4 km/h (1 Bft) S-SO 157 -1,4 C 1,3 C
21.02.2013 12:46 1,3 C 81 % 1024,8 hPa 0,0 l/m 2,2 km/h (1 Bft) O 90 -1,6 C 1,3 C
21.02.2013 12:51 1,0 C 80 % 1024,8 hPa 0,0 l/m 0,0 km/h (0 Bft) O 90 -2,1 C 1,0 C
21.02.2013 12:56 1,3 C 81 % 1024,7 hPa 0,5 l/m 0,0 km/h (0 Bft) SO 135 -1,6 C 1,3 C
21.02.2013 13:01 1,3 C 80 % 1024,6 hPa 0,0 l/m 0,0 km/h (0 Bft) SO 135 -1,8 C 1,3 C
21.02.2013 13:06 1,5 C 80 % 1024,3 hPa 0,0 l/m 3,2 km/h (1 Bft) O 90 -1,6 C 1,5 C
21.02.2013 13:11 1,6 C 78 % 1024,3 hPa 0,0 l/m 4,0 km/h (1 Bft) O-NO 67 -1,8 C 1,6 C
21.02.2013 13:16 1,8 C 76 % 1024,3 hPa 0,0 l/m 7,2 km/h (2 Bft) O-NO 67 -2,0 C -0,4 C
21.02.2013 13:21 1,6 C 74 % 1024,3 hPa 0,0 l/m 6,5 km/h (2 Bft) O-NO 67 -2,5 C -0,4 C
21.02.2013 13:26 1,5 C 72 % 1024,4 hPa 0,0 l/m 12,6 km/h (3 Bft) NO 45 -3,0 C -2,1 C
21.02.2013 13:31 1,3 C 73 % 1024,3 hPa 0,0 l/m 10,8 km/h (2 Bft) NO 45 -3,0 C -2,0 C
21.02.2013 13:36 0,9 C 73 % 1024,2 hPa 0,0 l/m 3,6 km/h (1 Bft) NO 45 -3,4 C 0,9 C
21.02.2013 13:41 0,8 C 74 % 1024,0 hPa 0,0 l/m 10,1 km/h (2 Bft) NO 45 -3,3 C -2,4 C
21.02.2013 13:46 0,6 C 74 % 1024,0 hPa 0,0 l/m 8,6 km/h (2 Bft) O-NO 67 -3,5 C -2,2 C
21.02.2013 13:51 0,4 C 74 % 1024,1 hPa 0,0 l/m 5,0 km/h (1 Bft) NO 45 -3,7 C -1,1 C
21.02.2013 13:56 0,4 C 75 % 1024,1 hPa 0,0 l/m 5,0 km/h (1 Bft) O-NO 67 -3,5 C -1,1 C
21.02.2013 14:01 0,3 C 76 % 1024,1 hPa 0,0 l/m 6,1 km/h (2 Bft) O 90 -3,4 C -1,7 C
21.02.2013 14:06 0,1 C 76 % 1024,0 hPa 0,0 l/m 8,6 km/h (2 Bft) N-NO 22 -3,6 C -2,8 C
21.02.2013 14:11 0,1 C 77 % 1023,8 hPa 0,0 l/m 6,5 km/h (2 Bft) N 360 -3,4 C -2,1 C
21.02.2013 14:16 -0,1 C 77 % 1023,8 hPa 0,0 l/m 5,8 km/h (2 Bft) O 90 -3,6 C -2,1 C
21.02.2013 14:21 -0,1 C 78 % 1023,9 hPa 0,0 l/m 6,1 km/h (2 Bft) N 360 -3,5 C -2,2 C
21.02.2013 14:26 -0,1 C 78 % 1023,9 hPa 0,0 l/m 4,3 km/h (1 Bft) NO 45 -3,5 C -0,1 C
21.02.2013 14:31 -0,1 C 78 % 1024,0 hPa 0,0 l/m 6,5 km/h (2 Bft) N-NO 22 -3,5 C -2,3 C
21.02.2013 14:36 -0,1 C 78 % 1023,9 hPa 0,0 l/m 7,2 km/h (2 Bft) NO 45 -3,5 C -2,6 C
21.02.2013 14:41 -0,1 C 78 % 1023,8 hPa 0,0 l/m 5,4 km/h (1 Bft) NO 45 -3,5 C -1,9 C
21.02.2013 14:46 0,2 C 77 % 1023,9 hPa 0,0 l/m 4,7 km/h (1 Bft) O 90 -3,3 C -1,2 C
21.02.2013 14:51 0,2 C 76 % 1023,7 hPa 0,0 l/m 12,6 km/h (3 Bft) NO 45 -3,5 C -3,7 C
21.02.2013 14:56 0,2 C 76 % 1023,7 hPa 0,0 l/m 6,1 km/h (2 Bft) O-NO 67 -3,5 C -1,8 C
21.02.2013 15:01 0,1 C 76 % 1023,6 hPa 0,0 l/m 5,8 km/h (2 Bft) O-NO 67 -3,6 C -1,8 C
21.02.2013 15:06 0,1 C 77 % 1023,7 hPa 0,0 l/m 7,2 km/h (2 Bft) O-NO 67 -3,4 C -2,4 C
21.02.2013 15:11 0,1 C 77 % 1023,8 hPa 0,0 l/m 2,2 km/h (1 Bft) SO 135 -3,4 C 0,1 C
21.02.2013 15:16 -0,1 C 77 % 1023,4 hPa 0,0 l/m 5,4 km/h (1 Bft) O 90 -3,6 C -1,9 C
21.02.2013 15:21 -0,1 C 77 % 1023,5 hPa 0,0 l/m 6,1 km/h (2 Bft) O-NO 67 -3,6 C -2,2 C
21.02.2013 15:26 -0,1 C 76 % 1023,6 hPa 0,0 l/m 2,2 km/h (1 Bft) NO 45 -3,8 C -0,1 C
21.02.2013 15:31 -0,1 C 76 % 1023,7 hPa 0,0 l/m 9,0 km/h (2 Bft) O-NO 67 -3,8 C -3,2 C
21.02.2013 15:36 -0,2 C 76 % 1023,6 hPa 0,0 l/m 2,5 km/h (1 Bft) N-NO 22 -3,9 C -0,2 C
21.02.2013 15:41 -0,2 C 76 % 1023,6 hPa 0,0 l/m 6,5 km/h (2 Bft) NO 45 -3,9 C -2,5 C
21.02.2013 15:46 -0,2 C 76 % 1023,6 hPa 0,0 l/m 2,5 km/h (1 Bft) O-SO 112 -3,9 C -0,2 C
21.02.2013 15:51 -0,2 C 76 % 1023,6 hPa 0,0 l/m 11,9 km/h (2 Bft) NO 45 -3,9 C -4,0 C
21.02.2013 15:56 -0,2 C 74 % 1023,6 hPa 0,0 l/m 3,6 km/h (1 Bft) N-NO 22 -4,3 C -0,2 C
21.02.2013 16:01 -0,2 C 75 % 1023,7 hPa 0,0 l/m 6,8 km/h (2 Bft) O 90 -4,1 C -2,6 C
21.02.2013 16:06 -0,2 C 75 % 1023,6 hPa 0,0 l/m 6,5 km/h (2 Bft) NO 45 -4,1 C -2,5 C
21.02.2013 16:11 -0,4 C 75 % 1023,6 hPa 0,0 l/m 6,1 km/h (2 Bft) N-NO 22 -4,3 C -2,5 C
21.02.2013 16:16 -0,4 C 75 % 1023,6 hPa 0,0 l/m 12,6 km/h (3 Bft) O-NO 67 -4,3 C -4,4 C
21.02.2013 16:21 -0,4 C 75 % 1023,6 hPa 0,0 l/m 5,8 km/h (2 Bft) NO 45 -4,3 C -2,4 C
21.02.2013 16:26 -0,5 C 75 % 1023,6 hPa 0,0 l/m 5,8 km/h (2 Bft) O-NO 67 -4,4 C -2,5 C
21.02.2013 16:31 -0,7 C 75 % 1023,6 hPa 0,0 l/m 9,4 km/h (2 Bft) NO 45 -4,6 C -4,0 C
21.02.2013 16:36 -0,7 C 75 % 1023,6 hPa 0,0 l/m 7,2 km/h (2 Bft) NO 45 -4,6 C -3,3 C
21.02.2013 16:41 -0,7 C 76 % 1023,6 hPa 0,0 l/m 8,6 km/h (2 Bft) N-NO 22 -4,4 C -3,7 C
21.02.2013 16:46 -0,8 C 77 % 1023,6 hPa 0,0 l/m 9,4 km/h (2 Bft) NO 45 -4,3 C -4,1 C
21.02.2013 16:51 -0,9 C 78 % 1023,5 hPa 0,0 l/m 3,2 km/h (1 Bft) NO 45 -4,2 C -0,9 C
21.02.2013 16:56 -1,0 C 78 % 1023,6 hPa 0,0 l/m 18,7 km/h (3 Bft) O-NO 67 -4,3 C -6,3 C
21.02.2013 17:01 -1,0 C 78 % 1023,6 hPa 0,0 l/m 7,2 km/h (2 Bft) NO 45 -4,3 C -3,6 C
21.02.2013 17:06 -1,1 C 78 % 1023,6 hPa 0,0 l/m 2,2 km/h (1 Bft) NO 45 -4,4 C -1,1 C
21.02.2013 17:11 -1,1 C 78 % 1023,5 hPa 0,0 l/m 5,4 km/h (1 Bft) O 90 -4,4 C -3,0 C
21.02.2013 17:16 -1,1 C 78 % 1023,6 hPa 0,0 l/m 4,0 km/h (1 Bft) O 90 -4,4 C -1,1 C
21.02.2013 17:21 -1,1 C 78 % 1023,6 hPa 0,0 l/m 4,0 km/h (1 Bft) O-NO 67 -4,4 C -1,1 C
21.02.2013 17:26 -1,1 C 79 % 1023,6 hPa 0,0 l/m 7,6 km/h (2 Bft) NO 45 -4,3 C -3,9 C
21.02.2013 17:31 -1,1 C 78 % 1023,6 hPa 0,0 l/m 3,6 km/h (1 Bft) NO 45 -4,4 C -1,1 C
21.02.2013 17:36 -1,1 C 78 % 1023,6 hPa 0,0 l/m 4,3 km/h (1 Bft) N-NO 22 -4,4 C -1,1 C
21.02.2013 17:41 -1,1 C 76 % 1023,5 hPa 0,0 l/m 4,0 km/h (1 Bft) O-NO 67 -4,8 C -1,1 C
21.02.2013 17:46 -1,1 C 74 % 1023,6 hPa 0,0 l/m 8,6 km/h (2 Bft) NO 45 -5,1 C -4,2 C
21.02.2013 17:51 -1,1 C 73 % 1023,7 hPa 0,0 l/m 4,0 km/h (1 Bft) SO 135 -5,3 C -1,1 C
21.02.2013 17:56 -1,1 C 72 % 1023,6 hPa 0,0 l/m 14,8 km/h (3 Bft) O-NO 67 -5,5 C -5,7 C
21.02.2013 18:01 -1,1 C 72 % 1023,7 hPa 0,0 l/m 6,1 km/h (2 Bft) O-NO 67 -5,5 C -3,3 C
21.02.2013 18:06 -1,1 C 72 % 1023,7 hPa 0,0 l/m 4,7 km/h (1 Bft) O-NO 67 -5,5 C -2,7 C
21.02.2013 18:11 -1,1 C 73 % 1023,7 hPa 0,0 l/m 11,9 km/h (2 Bft) O-NO 67 -5,3 C -5,1 C
21.02.2013 18:16 -1,1 C 73 % 1023,8 hPa 0,0 l/m 9,7 km/h (2 Bft) O-NO 67 -5,3 C -4,5 C
21.02.2013 18:21 -1,1 C 73 % 1023,8 hPa 0,0 l/m 2,5 km/h (1 Bft) NO 45 -5,3 C -1,1 C
21.02.2013 18:26 -1,1 C 73 % 1023,9 hPa 0,0 l/m 11,5 km/h (2 Bft) O-NO 67 -5,3 C -5,0 C
21.02.2013 18:31 -1,2 C 73 % 1023,8 hPa 0,0 l/m 16,6 km/h (3 Bft) NO 45 -5,4 C -6,2 C
21.02.2013 18:36 -1,2 C 73 % 1023,9 hPa 0,0 l/m 15,8 km/h (3 Bft) O-NO 67 -5,4 C -6,0 C
21.02.2013 18:41 -1,2 C 73 % 1023,9 hPa 0,0 l/m 14,0 km/h (3 Bft) O 90 -5,4 C -5,7 C
21.02.2013 18:46 -1,2 C 73 % 1023,9 hPa 0,0 l/m 9,7 km/h (2 Bft) NO 45 -5,4 C -4,7 C
21.02.2013 18:51 -1,2 C 73 % 1024,0 hPa 0,0 l/m 8,3 km/h (2 Bft) O-NO 67 -5,4 C -4,2 C
21.02.2013 18:56 -1,2 C 73 % 1024,0 hPa 0,0 l/m 7,2 km/h (2 Bft) S-SO 157 -5,4 C -3,9 C
21.02.2013 19:01 -1,2 C 72 % 1024,0 hPa 0,0 l/m 7,2 km/h (2 Bft) NO 45 -5,6 C -3,9 C
21.02.2013 19:06 -1,3 C 71 % 1023,9 hPa 0,0 l/m 9,4 km/h (2 Bft) O-SO 112 -5,9 C -4,7 C
21.02.2013 19:11 -1,3 C 71 % 1024,1 hPa 0,0 l/m 7,9 km/h (2 Bft) NO 45 -5,9 C -4,2 C
21.02.2013 19:16 -1,3 C 72 % 1024,0 hPa 0,0 l/m 4,0 km/h (1 Bft) NO 45 -5,7 C -1,3 C
21.02.2013 19:21 -1,3 C 72 % 1023,9 hPa 0,0 l/m 13,3 km/h (3 Bft) O-NO 67 -5,7 C -5,7 C
21.02.2013 19:26 -1,4 C 72 % 1023,9 hPa 0,0 l/m 5,0 km/h (1 Bft) O-NO 67 -5,8 C -3,2 C
21.02.2013 19:31 -1,4 C 73 % 1023,8 hPa 0,0 l/m 7,2 km/h (2 Bft) O-NO 67 -5,6 C -4,1 C
21.02.2013 19:36 -1,4 C 72 % 1024,0 hPa 0,0 l/m 9,4 km/h (2 Bft) NO 45 -5,8 C -4,8 C
21.02.2013 19:41 -1,4 C 72 % 1023,8 hPa 0,0 l/m 7,6 km/h (2 Bft) NO 45 -5,8 C -4,2 C
21.02.2013 19:46 -1,4 C 72 % 1024,0 hPa 0,0 l/m 8,6 km/h (2 Bft) O-NO 67 -5,8 C -4,6 C
21.02.2013 19:51 -1,4 C 73 % 1024,0 hPa 0,0 l/m 9,4 km/h (2 Bft) O 90 -5,6 C -4,8 C
21.02.2013 19:56 -1,5 C 73 % 1023,8 hPa 0,0 l/m 9,7 km/h (2 Bft) NO 45 -5,7 C -5,0 C
21.02.2013 20:01 -1,5 C 73 % 1023,9 hPa 0,0 l/m 11,2 km/h (2 Bft) O 90 -5,7 C -5,4 C
21.02.2013 20:06 -1,5 C 73 % 1023,8 hPa 0,0 l/m 7,2 km/h (2 Bft) O-NO 67 -5,7 C -4,2 C
21.02.2013 20:11 -1,5 C 74 % 1023,8 hPa 0,0 l/m 3,6 km/h (1 Bft) O-NO 67 -5,5 C -1,5 C
21.02.2013 20:16 -1,5 C 74 % 1023,9 hPa 0,0 l/m 8,6 km/h (2 Bft) O-NO 67 -5,5 C -4,7 C
21.02.2013 20:21 -1,5 C 74 % 1023,8 hPa 0,0 l/m 7,6 km/h (2 Bft) NO 45 -5,5 C -4,4 C
21.02.2013 20:26 -1,5 C 74 % 1023,9 hPa 0,0 l/m 3,2 km/h (1 Bft) O 90 -5,5 C -1,5 C
21.02.2013 20:31 -1,5 C 74 % 1023,9 hPa 0,0 l/m 4,7 km/h (1 Bft) NO 45 -5,5 C -3,1 C
21.02.2013 20:36 -1,6 C 74 % 1023,9 hPa 0,0 l/m 7,6 km/h (2 Bft) SO 135 -5,6 C -4,5 C
21.02.2013 20:41 -1,6 C 74 % 1023,9 hPa 0,0 l/m 3,6 km/h (1 Bft) O 90 -5,6 C -1,6 C
21.02.2013 20:46 -1,6 C 74 % 1024,0 hPa 0,0 l/m 9,7 km/h (2 Bft) NO 45 -5,6 C -5,1 C
21.02.2013 20:51 -1,6 C 74 % 1023,9 hPa 0,0 l/m 6,1 km/h (2 Bft) NO 45 -5,6 C -3,9 C
21.02.2013 20:56 -1,6 C 74 % 1023,9 hPa 0,0 l/m 4,7 km/h (1 Bft) O-NO 67 -5,6 C -3,3 C
21.02.2013 21:01 -1,6 C 74 % 1023,8 hPa 0,0 l/m 0,0 km/h (0 Bft) O-NO 67 -5,6 C -1,6 C
21.02.2013 21:06 -1,6 C 74 % 1023,9 hPa 0,0 l/m 4,7 km/h (1 Bft) O 90 -5,6 C -3,3 C
21.02.2013 21:11 -1,6 C 74 % 1023,7 hPa 0,0 l/m 7,2 km/h (2 Bft) O 90 -5,6 C -4,3 C
21.02.2013 21:16 -1,6 C 74 % 1023,9 hPa 0,0 l/m 2,5 km/h (1 Bft) O-NO 67 -5,6 C -1,6 C
21.02.2013 21:21 -1,6 C 74 % 1023,9 hPa 0,0 l/m 7,9 km/h (2 Bft) O-NO 67 -5,6 C -4,6 C
21.02.2013 21:26 -1,7 C 75 % 1023,7 hPa 0,0 l/m 7,2 km/h (2 Bft) O-NO 67 -5,5 C -4,5 C
21.02.2013 21:31 -1,7 C 75 % 1023,7 hPa 0,0 l/m 2,2 km/h (1 Bft) O-NO 67 -5,5 C -1,7 C
21.02.2013 21:36 -1,7 C 75 % 1023,8 hPa 0,0 l/m 6,1 km/h (2 Bft) O-NO 67 -5,5 C -4,0 C
21.02.2013 21:41 -1,7 C 75 % 1023,8 hPa 0,0 l/m 1,8 km/h (1 Bft) O-NO 67 -5,5 C -1,7 C
21.02.2013 21:46 -1,7 C 75 % 1023,7 hPa 0,0 l/m 5,8 km/h (2 Bft) O-SO 112 -5,5 C -3,9 C
21.02.2013 21:51 -1,7 C 75 % 1023,8 hPa 0,0 l/m 2,5 km/h (1 Bft) NO 45 -5,5 C -1,7 C
21.02.2013 21:56 -1,7 C 75 % 1023,8 hPa 0,0 l/m 3,6 km/h (1 Bft) N-NO 22 -5,5 C -1,7 C
21.02.2013 22:01 -1,8 C 75 % 1023,9 hPa 0,0 l/m 4,7 km/h (1 Bft) O-NO 67 -5,6 C -3,5 C
21.02.2013 22:06 -1,8 C 76 % 1023,9 hPa 0,0 l/m 2,5 km/h (1 Bft) N-NO 22 -5,5 C -1,8 C
21.02.2013 22:11 -1,8 C 76 % 1024,0 hPa 0,0 l/m 2,2 km/h (1 Bft) O-NO 67 -5,5 C -1,8 C
21.02.2013 22:16 -1,8 C 76 % 1023,9 hPa 0,0 l/m 6,1 km/h (2 Bft) O-NO 67 -5,5 C -4,1 C
21.02.2013 22:21 -1,8 C 76 % 1023,9 hPa 0,0 l/m 4,3 km/h (1 Bft) O-NO 67 -5,5 C -1,8 C
21.02.2013 22:26 -1,8 C 77 % 1023,8 hPa 0,0 l/m 2,9 km/h (1 Bft) O-NO 67 -5,3 C -1,8 C
21.02.2013 22:31 -1,8 C 77 % 1023,6 hPa 0,0 l/m 3,2 km/h (1 Bft) NO 45 -5,3 C -1,8 C
21.02.2013 22:36 -1,8 C 77 % 1023,7 hPa 0,0 l/m 2,2 km/h (1 Bft) O-NO 67 -5,3 C -1,8 C
21.02.2013 22:41 -1,8 C 77 % 1023,6 hPa 0,0 l/m 5,4 km/h (1 Bft) NO 45 -5,3 C -3,8 C
21.02.2013 22:46 -1,9 C 77 % 1023,9 hPa 0,0 l/m 2,9 km/h (1 Bft) O-NO 67 -5,4 C -1,9 C
21.02.2013 22:51 -1,9 C 78 % 1023,6 hPa 0,0 l/m 0,0 km/h (0 Bft) NO 45 -5,2 C -1,9 C
21.02.2013 22:56 -1,9 C 78 % 1023,7 hPa 0,0 l/m 0,0 km/h (0 Bft) NO 45 -5,2 C -1,9 C
21.02.2013 23:01 -1,9 C 78 % 1023,7 hPa 0,0 l/m 1,8 km/h (1 Bft) NO 45 -5,2 C -1,9 C
21.02.2013 23:06 -1,9 C 78 % 1023,5 hPa 0,0 l/m 2,9 km/h (1 Bft) O-NO 67 -5,2 C -1,9 C
21.02.2013 23:11 -2,0 C 79 % 1023,6 hPa 0,0 l/m 3,6 km/h (1 Bft) O-NO 67 -5,1 C -2,0 C
21.02.2013 23:16 -2,1 C 79 % 1023,6 hPa 0,0 l/m 3,6 km/h (1 Bft) NO 45 -5,2 C -2,1 C
21.02.2013 23:21 -2,1 C 79 % 1023,7 hPa 0,0 l/m 0,0 km/h (0 Bft) N-NO 22 -5,2 C -2,1 C
21.02.2013 23:26 -2,1 C 79 % 1023,6 hPa 0,0 l/m 2,5 km/h (1 Bft) NO 45 -5,2 C -2,1 C
21.02.2013 23:31 -2,2 C 80 % 1023,6 hPa 0,0 l/m 5,0 km/h (1 Bft) O-NO 67 -5,2 C -4,1 C
21.02.2013 23:36 -2,2 C 80 % 1023,8 hPa 0,0 l/m 5,8 km/h (2 Bft) O-NO 67 -5,2 C -4,5 C
21.02.2013 23:41 -2,4 C 80 % 1023,9 hPa 0,0 l/m 6,5 km/h (2 Bft) NO 45 -5,4 C -5,0 C
21.02.2013 23:46 -2,4 C 80 % 1023,7 hPa 0,0 l/m 4,0 km/h (1 Bft) O-NO 67 -5,4 C -2,4 C
21.02.2013 23:51 -2,4 C 80 % 1023,8 hPa 0,0 l/m 1,8 km/h (1 Bft) NO 45 -5,4 C -2,4 C
21.02.2013 23:56 -2,6 C 80 % 1023,8 hPa 0,0 l/m 7,9 km/h (2 Bft) O-NO 67 -5,6 C -5,8 C
_ Min-Zeit 23:56 19:06 15:16 - 02:26 - - 19:06 01:21
Minimum _ -2,6 C 71 % 1023,4 hPa - 0,0 km/h (0 Bft) - - -5,9 C -7,6 C
_ Max-Zeit 13:16 04:11 00:01 12:56 16:56 - - 12:41 13:11
Maximum _ 1,8 C 89 % 1025,5 hPa 0,5 l/m 18,7 km/h
O-NO (3 Bft)
- - -1,4 C 1,6 C
Durchschnitt _ -1,3 C 81 % 1024,5 hPa #0,5 l/m 5,9 km/h (2 Bft) N-NO - -4,1 C -3,0 C
(c) by David Heller